createdAt,value
2023-02-13T00:01:59.959Z,-6.61
2023-02-13T00:04:02.632Z,-6.68
2023-02-13T00:06:05.308Z,-6.71
2023-02-13T00:08:07.926Z,-6.69
2023-02-13T00:10:10.881Z,-6.67
2023-02-13T00:12:13.447Z,-6.75
2023-02-13T00:14:16.076Z,-6.76
2023-02-13T00:16:18.826Z,-6.82
2023-02-13T00:18:21.566Z,-6.87
2023-02-13T00:20:24.413Z,-6.78
2023-02-13T00:22:27.454Z,-6.79
2023-02-13T00:24:29.982Z,-6.83
2023-02-13T00:26:32.584Z,-6.77
2023-02-13T00:28:35.455Z,-6.55
2023-02-13T00:30:38.088Z,-6.59
2023-02-13T00:32:40.634Z,-6.58
2023-02-13T00:34:44.282Z,-6.54
2023-02-13T00:36:46.888Z,-6.60
2023-02-13T00:38:49.837Z,-6.53
2023-02-13T00:40:52.489Z,-6.62
2023-02-13T00:42:55.038Z,-6.54
2023-02-13T00:44:57.649Z,-6.49
2023-02-13T00:47:00.355Z,-6.60
2023-02-13T00:49:03.131Z,-6.60
2023-02-13T00:51:07.096Z,-6.58
2023-02-13T00:53:09.720Z,-6.62
2023-02-13T00:55:12.371Z,-6.66
2023-02-13T00:57:15.029Z,-6.65
2023-02-13T00:59:18.282Z,-6.68
2023-02-13T01:01:20.968Z,-6.69
2023-02-13T01:03:24.497Z,-6.68
2023-02-13T01:05:28.710Z,-6.74
2023-02-13T01:07:31.277Z,-6.81
2023-02-13T01:09:34.009Z,-6.80
2023-02-13T01:11:36.637Z,-6.77
2023-02-13T01:13:39.383Z,-6.77
2023-02-13T01:15:42.585Z,-6.72
2023-02-13T01:17:45.331Z,-6.69
2023-02-13T01:19:47.915Z,-6.71
2023-02-13T01:21:50.723Z,-6.67
2023-02-13T01:23:53.275Z,-6.67
2023-02-13T01:25:55.995Z,-6.64
2023-02-13T01:27:58.576Z,-6.67
2023-02-13T01:30:01.336Z,-6.78
2023-02-13T01:32:05.461Z,-6.84
2023-02-13T01:34:08.102Z,-6.88
2023-02-13T01:36:12.685Z,-6.91
2023-02-13T01:38:15.232Z,-6.95
2023-02-13T01:40:18.136Z,-7.03
2023-02-13T01:42:39.220Z,-7.06
2023-02-13T01:44:50.952Z,-7.00
2023-02-13T01:46:53.626Z,-7.00
2023-02-13T01:49:01.134Z,-6.99
2023-02-13T01:51:10.576Z,-7.01
2023-02-13T01:53:23.059Z,-7.04
2023-02-13T01:55:27.996Z,-7.09
2023-02-13T01:57:33.378Z,-7.06
2023-02-13T01:59:45.076Z,-7.02
2023-02-13T02:01:48.338Z,-7.00
2023-02-13T02:04:07.932Z,-6.96
2023-02-13T02:06:17.678Z,-6.97
2023-02-13T02:08:21.020Z,-6.94
2023-02-13T02:10:24.234Z,-6.90
2023-02-13T02:12:34.526Z,-6.94
2023-02-13T02:14:38.521Z,-6.94
2023-02-13T02:16:41.097Z,-6.99
2023-02-13T02:18:43.711Z,-6.99
2023-02-13T02:21:10.432Z,-7.02
2023-02-13T02:23:40.658Z,-6.94
2023-02-13T02:26:01.500Z,-6.76
2023-02-13T02:28:22.862Z,-6.66
2023-02-13T02:31:02.992Z,-6.74
2023-02-13T02:33:14.474Z,-6.73
2023-02-13T02:35:41.556Z,-6.78
2023-02-13T02:38:06.982Z,-6.75
2023-02-13T02:40:25.534Z,-6.72
2023-02-13T02:42:52.175Z,-6.73
2023-02-13T02:44:57.521Z,-6.74
2023-02-13T02:47:27.572Z,-6.81
2023-02-13T02:49:54.549Z,-6.90
2023-02-13T02:52:08.886Z,-6.99
2023-02-13T02:54:41.382Z,-6.99
2023-02-13T02:56:44.775Z,-7.06
2023-02-13T02:59:27.980Z,-7.09
2023-02-13T03:01:51.554Z,-7.04
2023-02-13T03:04:23.941Z,-7.08
2023-02-13T03:06:35.255Z,-6.98
2023-02-13T03:08:58.299Z,-6.96
2023-02-13T03:11:19.686Z,-7.01
2023-02-13T03:13:47.121Z,-6.95
2023-02-13T03:16:11.819Z,-6.94
2023-02-13T03:18:32.731Z,-6.97
2023-02-13T03:21:11.005Z,-6.94
2023-02-13T03:23:16.643Z,-6.91
2023-02-13T03:25:35.792Z,-6.85
2023-02-13T03:28:09.452Z,-6.85
2023-02-13T03:30:36.085Z,-6.92
2023-02-13T03:33:05.027Z,-7.02
2023-02-13T03:35:38.519Z,-6.91
2023-02-13T03:37:57.115Z,-6.96
2023-02-13T03:40:22.134Z,-6.99
2023-02-13T03:42:33.468Z,-7.03
2023-02-13T03:44:41.725Z,-7.05
2023-02-13T03:46:48.532Z,-7.09
2023-02-13T03:49:10.509Z,-7.03
2023-02-13T03:51:19.883Z,-7.10
2023-02-13T03:53:24.712Z,-7.08
2023-02-13T03:56:00.367Z,-7.07
2023-02-13T03:58:30.513Z,-7.04
2023-02-13T04:00:46.757Z,-7.06
2023-02-13T04:03:06.065Z,-7.07
2023-02-13T04:05:16.659Z,-7.08
2023-02-13T04:07:32.191Z,-7.06
2023-02-13T04:09:39.343Z,-7.04
2023-02-13T04:12:11.807Z,-7.09
2023-02-13T04:14:29.195Z,-7.11
2023-02-13T04:16:39.487Z,-7.10
2023-02-13T04:18:43.451Z,-7.17
2023-02-13T04:20:46.189Z,-7.21
2023-02-13T04:22:48.946Z,-7.19
2023-02-13T04:24:51.675Z,-7.16
2023-02-13T04:26:55.963Z,-7.17
2023-02-13T04:28:58.542Z,-7.12
2023-02-13T04:31:01.626Z,-7.07
2023-02-13T04:33:04.767Z,-7.05
2023-02-13T04:35:07.570Z,-7.06
2023-02-13T04:37:10.241Z,-7.07
2023-02-13T04:39:12.979Z,-7.09
2023-02-13T04:41:15.668Z,-7.04
2023-02-13T04:43:18.373Z,-6.98
2023-02-13T04:45:21.230Z,-7.04
2023-02-13T04:47:23.969Z,-7.05
2023-02-13T04:49:26.583Z,-7.14
2023-02-13T04:51:29.372Z,-7.15
2023-02-13T04:53:31.997Z,-7.14
2023-02-13T04:55:35.124Z,-7.12
2023-02-13T04:57:37.785Z,-7.07
2023-02-13T04:59:40.481Z,-7.06
2023-02-13T05:01:43.199Z,-7.05
2023-02-13T05:03:46.054Z,-7.05
2023-02-13T05:05:49.628Z,-7.00
2023-02-13T05:07:52.338Z,-6.94
2023-02-13T05:09:54.933Z,-6.90
2023-02-13T05:11:57.745Z,-6.90
2023-02-13T05:14:00.434Z,-6.86
2023-02-13T05:16:03.414Z,-6.85
2023-02-13T05:18:06.194Z,-6.81
2023-02-13T05:20:09.330Z,-6.81
2023-02-13T05:22:30.488Z,-6.76
2023-02-13T05:24:33.063Z,-6.71
2023-02-13T05:26:35.759Z,-6.64
2023-02-13T05:28:57.243Z,-6.60
2023-02-13T05:31:00.320Z,-6.51
2023-02-13T05:33:03.300Z,-6.56
2023-02-13T05:35:06.524Z,-6.53
2023-02-13T05:37:09.234Z,-6.53
2023-02-13T05:39:11.948Z,-6.49
2023-02-13T05:41:14.592Z,-6.43
2023-02-13T05:43:17.293Z,-6.36
2023-02-13T05:45:19.929Z,-6.35
2023-02-13T05:47:22.580Z,-6.43
2023-02-13T05:49:25.177Z,-6.40
2023-02-13T05:51:27.856Z,-6.44
2023-02-13T05:53:30.628Z,-6.41
2023-02-13T05:55:33.245Z,-6.45
2023-02-13T05:57:35.811Z,-6.57
2023-02-13T05:59:38.532Z,-6.52
2023-02-13T06:01:41.544Z,-6.50
2023-02-13T06:03:44.243Z,-6.48
2023-02-13T06:05:47.086Z,-6.43
2023-02-13T06:07:49.755Z,-6.41
2023-02-13T06:09:52.709Z,-6.40
2023-02-13T06:11:55.437Z,-6.40
2023-02-13T06:13:58.173Z,-6.42
2023-02-13T06:16:00.984Z,-6.46
2023-02-13T06:18:03.725Z,-6.43
2023-02-13T06:20:07.484Z,-6.41
2023-02-13T06:22:10.145Z,-6.37
2023-02-13T06:24:12.714Z,-6.31
2023-02-13T06:26:15.601Z,-6.33
2023-02-13T06:28:18.428Z,-6.34
2023-02-13T06:30:21.316Z,-6.34
2023-02-13T06:32:23.984Z,-6.25
2023-02-13T06:34:26.597Z,-6.25
2023-02-13T06:36:29.289Z,-6.19
2023-02-13T06:38:32.341Z,-6.12
2023-02-13T06:40:35.050Z,-6.10
2023-02-13T06:42:37.676Z,-6.19
2023-02-13T06:44:40.329Z,-6.09
2023-02-13T06:46:43.087Z,-6.00
2023-02-13T06:48:45.904Z,-5.83
2023-02-13T06:50:48.529Z,-5.82
2023-02-13T06:52:52.383Z,-5.86
2023-02-13T06:54:54.979Z,-5.86
2023-02-13T06:56:57.548Z,-5.82
2023-02-13T06:59:00.561Z,-5.72
2023-02-13T07:01:03.395Z,-5.79
2023-02-13T07:03:07.117Z,-5.76
2023-02-13T07:05:11.660Z,-5.78
2023-02-13T07:07:14.478Z,-5.82
2023-02-13T07:09:17.076Z,-5.77
2023-02-13T07:11:20.668Z,-5.80
2023-02-13T07:13:23.428Z,-5.76
2023-02-13T07:15:26.237Z,-5.78
2023-02-13T07:17:29.326Z,-5.63
2023-02-13T07:19:33.502Z,-5.50
2023-02-13T07:21:38.445Z,-5.47
2023-02-13T07:23:41.854Z,-5.48
2023-02-13T07:25:44.637Z,-5.28
2023-02-13T07:27:47.558Z,-5.17
2023-02-13T07:29:50.419Z,-5.13
2023-02-13T07:31:53.197Z,-4.99
2023-02-13T07:33:55.954Z,-4.92
2023-02-13T07:35:58.756Z,-4.93
2023-02-13T07:38:01.386Z,-4.93
2023-02-13T07:40:06.558Z,-4.95
2023-02-13T07:42:09.407Z,-4.82
2023-02-13T07:44:12.216Z,-4.73
2023-02-13T07:46:14.882Z,-4.57
2023-02-13T07:48:18.720Z,-4.59
2023-02-13T07:50:21.548Z,-4.77
2023-02-13T07:52:25.595Z,-4.78
2023-02-13T07:54:28.504Z,-4.79
2023-02-13T07:56:31.320Z,-4.81
2023-02-13T07:58:34.455Z,-4.81
2023-02-13T08:00:38.526Z,-4.84
2023-02-13T08:02:43.549Z,-4.74
2023-02-13T08:04:49.368Z,-4.76
2023-02-13T08:06:52.112Z,-4.71
2023-02-13T08:09:17.280Z,-4.64
2023-02-13T08:11:51.767Z,-4.49
2023-02-13T08:13:54.508Z,-4.37
2023-02-13T08:15:57.529Z,-4.18
2023-02-13T08:18:00.411Z,-4.07
2023-02-13T08:20:03.839Z,-3.95
2023-02-13T08:22:07.271Z,-3.83
2023-02-13T08:24:10.719Z,-3.84
2023-02-13T08:26:13.478Z,-3.77
2023-02-13T08:28:17.335Z,-3.67
2023-02-13T08:30:20.763Z,-3.92
2023-02-13T08:32:24.956Z,-4.04
2023-02-13T08:34:27.845Z,-3.96
2023-02-13T08:36:31.395Z,-4.02
2023-02-13T08:38:34.600Z,-3.93
2023-02-13T08:40:37.516Z,-3.88
2023-02-13T08:42:40.281Z,-3.78
2023-02-13T08:44:42.978Z,-3.65
2023-02-13T08:46:45.632Z,-3.74
2023-02-13T08:48:48.468Z,-3.87
2023-02-13T08:50:51.149Z,-3.84
2023-02-13T08:52:54.622Z,-3.74
2023-02-13T08:54:58.632Z,-3.66
2023-02-13T08:57:02.185Z,-3.63
2023-02-13T08:59:04.926Z,-3.67
2023-02-13T09:01:08.936Z,-3.83
2023-02-13T09:03:11.847Z,-3.85
2023-02-13T09:05:14.673Z,-3.77
2023-02-13T09:07:17.317Z,-3.70
2023-02-13T09:09:20.245Z,-3.73
2023-02-13T09:11:23.720Z,-3.65
2023-02-13T09:13:26.831Z,-3.53
2023-02-13T09:15:30.162Z,-3.34
2023-02-13T09:17:32.854Z,-3.24
2023-02-13T09:19:35.553Z,-3.34
2023-02-13T09:21:38.284Z,-3.44
2023-02-13T09:23:41.821Z,-3.45
2023-02-13T09:25:44.572Z,-3.45
2023-02-13T09:27:47.285Z,-3.37
2023-02-13T09:29:49.996Z,-3.40
2023-02-13T09:31:53.079Z,-3.52
2023-02-13T09:33:55.956Z,-3.54
2023-02-13T09:35:58.830Z,-3.55
2023-02-13T09:38:01.897Z,-3.49
2023-02-13T09:40:04.723Z,-3.49
2023-02-13T09:42:25.171Z,-3.46
2023-02-13T09:44:43.981Z,-3.47
2023-02-13T09:46:47.095Z,-3.53
2023-02-13T09:48:54.188Z,-3.50
2023-02-13T09:50:58.119Z,-3.29
2023-02-13T09:53:02.009Z,-3.15
2023-02-13T09:55:16.050Z,-3.10
2023-02-13T09:57:33.938Z,-2.91
2023-02-13T09:59:58.436Z,-3.12
2023-02-13T10:02:14.875Z,-3.08
2023-02-13T10:04:30.344Z,-2.81
2023-02-13T10:06:50.215Z,-2.52
2023-02-13T10:09:01.698Z,-2.47
2023-02-13T10:11:28.587Z,-2.37
2023-02-13T10:13:49.072Z,-2.22
2023-02-13T10:16:16.945Z,-2.64
2023-02-13T10:18:32.228Z,-2.94
2023-02-13T10:20:44.142Z,-3.09
2023-02-13T10:22:53.067Z,-3.14
2023-02-13T10:25:03.124Z,-3.06
2023-02-13T10:27:39.464Z,-3.25
2023-02-13T10:30:04.543Z,-3.32
2023-02-13T10:32:17.326Z,-3.42
2023-02-13T10:34:25.581Z,-3.32
2023-02-13T10:36:32.400Z,-3.25
2023-02-13T10:38:40.678Z,-3.26
2023-02-13T10:41:03.474Z,-3.30
2023-02-13T10:43:10.915Z,-3.34
2023-02-13T10:45:40.595Z,-3.30
2023-02-13T10:48:08.085Z,-3.21
2023-02-13T10:50:20.737Z,-3.17
2023-02-13T10:52:43.910Z,-3.17
2023-02-13T10:55:28.307Z,-3.28
2023-02-13T10:57:37.495Z,-3.19
2023-02-13T10:59:55.640Z,-3.07
2023-02-13T11:02:13.934Z,-3.07
2023-02-13T11:04:19.573Z,-3.14
2023-02-13T11:06:22.582Z,-3.04
2023-02-13T11:08:35.518Z,-2.90
2023-02-13T11:10:40.456Z,-2.86
2023-02-13T11:12:43.137Z,-2.98
2023-02-13T11:14:57.969Z,-3.14
2023-02-13T11:17:07.382Z,-3.20
2023-02-13T11:19:53.779Z,-3.32
2023-02-13T11:22:04.908Z,-3.51
2023-02-13T11:24:22.728Z,-3.56
2023-02-13T11:26:50.178Z,-3.51
2023-02-13T11:29:02.432Z,-3.49
2023-02-13T11:31:24.642Z,-3.49
2023-02-13T11:33:28.374Z,-3.53
2023-02-13T11:35:37.131Z,-3.49
2023-02-13T11:37:40.872Z,-3.62
2023-02-13T11:39:46.753Z,-3.77
2023-02-13T11:41:53.033Z,-3.81
2023-02-13T11:44:01.982Z,-3.88
2023-02-13T11:46:09.086Z,-3.92
2023-02-13T11:48:23.234Z,-3.88
2023-02-13T11:50:46.496Z,-3.71
2023-02-13T11:53:09.470Z,-3.79
2023-02-13T11:55:32.454Z,-3.78
2023-02-13T11:57:37.836Z,-3.64
2023-02-13T11:59:43.985Z,-3.61
2023-02-13T12:01:50.626Z,-3.47
2023-02-13T12:04:07.535Z,-3.55
2023-02-13T12:06:16.075Z,-3.84
2023-02-13T12:08:18.935Z,-3.92
2023-02-13T12:10:30.325Z,-3.93
2023-02-13T12:12:41.598Z,-3.98
2023-02-13T12:14:46.654Z,-3.94
2023-02-13T12:17:02.668Z,-3.86
2023-02-13T12:19:16.911Z,-3.73
2023-02-13T12:21:28.700Z,-3.82
2023-02-13T12:23:56.465Z,-3.75
2023-02-13T12:26:22.825Z,-3.67
2023-02-13T12:28:55.876Z,-3.77
2023-02-13T12:31:06.046Z,-3.75
2023-02-13T12:33:27.224Z,-3.94
2023-02-13T12:35:32.882Z,-3.94
2023-02-13T12:37:58.594Z,-3.94
2023-02-13T12:40:29.337Z,-3.87
2023-02-13T12:43:06.980Z,-3.78
2023-02-13T12:45:26.130Z,-3.86
2023-02-13T12:47:31.643Z,-4.00
2023-02-13T12:49:53.028Z,-4.12
2023-02-13T12:52:13.955Z,-4.25
2023-02-13T12:54:37.469Z,-4.18
2023-02-13T12:57:03.752Z,-4.23
2023-02-13T12:59:30.218Z,-4.24
2023-02-13T13:02:23.350Z,-4.36
2023-02-13T13:04:29.059Z,-4.47
2023-02-13T13:07:00.641Z,-4.56
2023-02-13T13:09:31.916Z,-4.75
2023-02-13T13:12:08.161Z,-4.94
2023-02-13T13:14:47.451Z,-5.08
2023-02-13T13:17:28.325Z,-5.21
2023-02-13T13:19:58.976Z,-5.44
2023-02-13T13:22:39.338Z,-5.49
2023-02-13T13:25:05.029Z,-5.62
2023-02-13T13:27:28.870Z,-5.75
2023-02-13T13:29:46.888Z,-5.82
2023-02-13T13:31:56.545Z,-5.93
2023-02-13T13:34:08.702Z,-6.07
2023-02-13T13:36:11.344Z,-6.10
2023-02-13T13:38:32.122Z,-6.23
2023-02-13T13:40:40.708Z,-6.29
2023-02-13T13:43:27.450Z,-6.39
2023-02-13T13:45:47.632Z,-6.47
2023-02-13T13:48:27.659Z,-6.54
2023-02-13T13:50:36.195Z,-6.60
2023-02-13T13:52:38.905Z,-6.60
2023-02-13T13:54:41.804Z,-6.64
2023-02-13T13:56:53.088Z,-6.66
2023-02-13T13:58:56.869Z,-6.74
2023-02-13T14:01:19.216Z,-6.83
2023-02-13T14:03:25.424Z,-6.83
2023-02-13T14:05:31.221Z,-6.80
2023-02-13T14:07:41.545Z,-6.87
2023-02-13T14:09:44.660Z,-6.88
2023-02-13T14:11:47.481Z,-6.92
2023-02-13T14:13:50.628Z,-6.92
2023-02-13T14:15:55.308Z,-6.95
2023-02-13T14:18:01.660Z,-7.02
2023-02-13T14:20:23.302Z,-7.10
2023-02-13T14:22:35.609Z,-7.13
2023-02-13T14:24:39.527Z,-7.19
2023-02-13T14:26:42.528Z,-7.23
2023-02-13T14:28:47.832Z,-7.28
2023-02-13T14:30:55.099Z,-7.35
2023-02-13T14:33:05.945Z,-7.36
2023-02-13T14:35:14.433Z,-7.37
2023-02-13T14:37:31.489Z,-7.36
2023-02-13T14:39:36.317Z,-7.36
2023-02-13T14:41:57.051Z,-7.34
2023-02-13T14:43:59.998Z,-7.37
2023-02-13T14:46:08.626Z,-7.45
2023-02-13T14:48:15.911Z,-7.49
2023-02-13T14:50:22.951Z,-7.54
2023-02-13T14:52:29.381Z,-7.55
2023-02-13T14:54:37.698Z,-7.53
2023-02-13T14:56:40.441Z,-7.53
2023-02-13T14:59:02.628Z,-7.51
2023-02-13T15:01:22.463Z,-7.49
2023-02-13T15:03:31.776Z,-7.48
2023-02-13T15:05:36.125Z,-7.48
2023-02-13T15:07:45.830Z,-7.49
2023-02-13T15:09:56.629Z,-7.49
2023-02-13T15:12:00.006Z,-7.42
2023-02-13T15:14:36.898Z,-7.42
2023-02-13T15:16:39.793Z,-7.49
2023-02-13T15:18:52.644Z,-7.44
2023-02-13T15:21:01.376Z,-7.43
2023-02-13T15:23:06.928Z,-7.44
2023-02-13T15:25:09.870Z,-7.45
2023-02-13T15:27:23.188Z,-7.44
2023-02-13T15:29:31.015Z,-7.47
2023-02-13T15:31:35.089Z,-7.46
2023-02-13T15:33:50.198Z,-7.47
2023-02-13T15:35:58.482Z,-7.49
2023-02-13T15:38:36.702Z,-7.52
2023-02-13T15:40:42.004Z,-7.48
2023-02-13T15:42:45.004Z,-7.48
2023-02-13T15:44:50.197Z,-7.43
2023-02-13T15:46:54.485Z,-7.45
2023-02-13T15:49:10.688Z,-7.40
2023-02-13T15:51:27.719Z,-7.36
2023-02-13T15:53:30.680Z,-7.31
2023-02-13T15:55:36.734Z,-7.25
2023-02-13T15:57:40.640Z,-7.23
2023-02-13T15:59:43.701Z,-7.19
2023-02-13T16:01:47.147Z,-7.17
2023-02-13T16:03:56.123Z,-7.17
2023-02-13T16:05:59.052Z,-7.13
2023-02-13T16:08:02.760Z,-7.12
2023-02-13T16:10:26.226Z,-7.15
2023-02-13T16:12:29.145Z,-7.11
2023-02-13T16:14:37.830Z,-7.10
2023-02-13T16:16:51.584Z,-7.16
2023-02-13T16:18:54.745Z,-7.20
2023-02-13T16:20:57.790Z,-7.19
2023-02-13T16:23:32.520Z,-7.20
2023-02-13T16:25:38.959Z,-7.16
2023-02-13T16:27:57.559Z,-7.13
2023-02-13T16:30:04.092Z,-7.13
2023-02-13T16:32:18.416Z,-7.10
2023-02-13T16:34:29.879Z,-7.10
2023-02-13T16:36:34.771Z,-7.08
2023-02-13T16:38:47.665Z,-7.03
2023-02-13T16:40:50.681Z,-7.00
2023-02-13T16:42:53.337Z,-6.98
2023-02-13T16:45:21.145Z,-6.94
2023-02-13T16:47:25.385Z,-6.92
2023-02-13T16:49:30.843Z,-6.93
2023-02-13T16:51:49.536Z,-6.94
2023-02-13T16:53:58.901Z,-6.92
2023-02-13T16:56:06.354Z,-6.85
2023-02-13T16:58:15.616Z,-6.78
2023-02-13T17:00:24.527Z,-6.73
2023-02-13T17:02:40.998Z,-6.71
2023-02-13T17:05:03.379Z,-6.67
2023-02-13T17:07:14.457Z,-6.71
2023-02-13T17:09:17.124Z,-6.72
2023-02-13T17:11:20.165Z,-6.76
2023-02-13T17:13:25.228Z,-6.83
2023-02-13T17:15:31.273Z,-6.87
2023-02-13T17:17:33.936Z,-6.83
2023-02-13T17:19:36.664Z,-6.79
2023-02-13T17:21:40.257Z,-6.80
2023-02-13T17:23:43.022Z,-6.79
2023-02-13T17:25:49.751Z,-6.77
2023-02-13T17:27:55.219Z,-6.76
2023-02-13T17:29:58.135Z,-6.78
2023-02-13T17:32:01.205Z,-6.75
2023-02-13T17:34:05.613Z,-6.69
2023-02-13T17:36:12.004Z,-6.69
2023-02-13T17:38:15.219Z,-6.59
2023-02-13T17:40:21.464Z,-6.55
2023-02-13T17:42:27.192Z,-6.53
2023-02-13T17:44:29.891Z,-6.51
2023-02-13T17:46:32.570Z,-6.48
2023-02-13T17:48:35.244Z,-6.46
2023-02-13T17:50:38.732Z,-6.51
2023-02-13T17:52:41.989Z,-6.52
2023-02-13T17:54:45.029Z,-6.59
2023-02-13T17:56:47.638Z,-6.51
2023-02-13T17:58:50.363Z,-6.50
2023-02-13T18:00:53.282Z,-6.49
2023-02-13T18:02:57.110Z,-6.50
2023-02-13T18:05:00.226Z,-6.45
2023-02-13T18:07:02.902Z,-6.46
2023-02-13T18:09:05.617Z,-6.44
2023-02-13T18:11:12.066Z,-6.42
2023-02-13T18:13:14.925Z,-6.44
2023-02-13T18:15:17.893Z,-6.42
2023-02-13T18:17:21.268Z,-6.36
2023-02-13T18:19:24.031Z,-6.34
2023-02-13T18:21:26.796Z,-6.36
2023-02-13T18:23:29.380Z,-6.38
2023-02-13T18:25:31.989Z,-6.40
2023-02-13T18:27:34.698Z,-6.45
2023-02-13T18:29:38.309Z,-6.40
2023-02-13T18:31:41.112Z,-6.40
2023-02-13T18:33:43.940Z,-6.43
2023-02-13T18:35:46.793Z,-6.40
2023-02-13T18:37:49.592Z,-6.38
2023-02-13T18:39:52.283Z,-6.34
2023-02-13T18:41:55.004Z,-6.33
2023-02-13T18:43:58.692Z,-6.24
2023-02-13T18:46:01.684Z,-6.24
2023-02-13T18:48:04.479Z,-6.20
2023-02-13T18:50:08.487Z,-6.14
2023-02-13T18:52:11.240Z,-6.12
2023-02-13T18:54:13.869Z,-6.08
2023-02-13T18:56:16.624Z,-6.07
2023-02-13T18:58:19.453Z,-6.03
2023-02-13T19:00:23.695Z,-6.01
2023-02-13T19:02:26.439Z,-5.97
2023-02-13T19:04:29.153Z,-5.97
2023-02-13T19:06:32.954Z,-5.94
2023-02-13T19:08:36.088Z,-5.90
2023-02-13T19:10:38.914Z,-5.89
2023-02-13T19:12:42.082Z,-5.86
2023-02-13T19:14:44.736Z,-5.86
2023-02-13T19:16:47.479Z,-5.85
2023-02-13T19:18:53.731Z,-5.91
2023-02-13T19:21:00.781Z,-5.95
2023-02-13T19:23:03.507Z,-5.98
2023-02-13T19:25:06.538Z,-6.01
2023-02-13T19:27:09.188Z,-6.01
2023-02-13T19:29:14.836Z,-6.04
2023-02-13T19:31:20.642Z,-6.04
2023-02-13T19:33:23.387Z,-6.06
2023-02-13T19:35:26.184Z,-6.03
2023-02-13T19:37:35.707Z,-6.02
2023-02-13T19:39:44.833Z,-6.06
2023-02-13T19:41:47.486Z,-6.05
2023-02-13T19:43:53.527Z,-6.05
2023-02-13T19:45:56.301Z,-6.05
2023-02-13T19:47:58.957Z,-6.06
2023-02-13T19:50:01.629Z,-6.07
2023-02-13T19:52:06.165Z,-6.09
2023-02-13T19:54:10.799Z,-6.05
2023-02-13T19:56:14.427Z,-6.08
2023-02-13T19:58:17.257Z,-6.06
2023-02-13T20:00:20.578Z,-6.02
2023-02-13T20:02:23.572Z,-6.03
2023-02-13T20:04:26.224Z,-5.98
2023-02-13T20:06:38.622Z,-5.99
2023-02-13T20:08:43.090Z,-5.95
2023-02-13T20:10:46.494Z,-5.92
2023-02-13T20:12:55.255Z,-5.87
2023-02-13T20:14:57.883Z,-5.84
2023-02-13T20:17:00.694Z,-5.88
2023-02-13T20:19:07.874Z,-5.83
2023-02-13T20:21:14.036Z,-5.82
2023-02-13T20:23:18.681Z,-5.81
2023-02-13T20:25:22.356Z,-5.79
2023-02-13T20:27:24.980Z,-5.79
2023-02-13T20:29:27.711Z,-5.78
2023-02-13T20:31:31.262Z,-5.79
2023-02-13T20:33:36.656Z,-5.81
2023-02-13T20:35:39.351Z,-5.78
2023-02-13T20:37:42.926Z,-5.80
2023-02-13T20:39:45.546Z,-5.79
2023-02-13T20:41:50.590Z,-5.76
2023-02-13T20:43:56.796Z,-5.74
2023-02-13T20:45:59.534Z,-5.71
2023-02-13T20:48:02.227Z,-5.68
2023-02-13T20:50:05.268Z,-5.68
2023-02-13T20:52:07.984Z,-5.69
2023-02-13T20:54:10.973Z,-5.64
2023-02-13T20:56:19.257Z,-5.58
2023-02-13T20:58:22.010Z,-5.54
2023-02-13T21:00:24.800Z,-5.52
2023-02-13T21:02:27.619Z,-5.50
2023-02-13T21:04:32.747Z,-5.47
2023-02-13T21:06:37.167Z,-5.46
2023-02-13T21:08:42.707Z,-5.42
2023-02-13T21:10:45.391Z,-5.40
2023-02-13T21:12:48.063Z,-5.37
2023-02-13T21:14:54.004Z,-5.37
2023-02-13T21:16:56.926Z,-5.39
2023-02-13T21:19:01.855Z,-5.34
2023-02-13T21:21:05.917Z,-5.32
2023-02-13T21:23:08.610Z,-5.29
2023-02-13T21:25:11.298Z,-5.28
2023-02-13T21:27:15.112Z,-5.31
2023-02-13T21:29:18.123Z,-5.23
2023-02-13T21:31:25.676Z,-5.24
2023-02-13T21:33:28.585Z,-5.20
2023-02-13T21:35:31.293Z,-5.16
2023-02-13T21:37:34.023Z,-5.13
2023-02-13T21:39:37.443Z,-5.11
2023-02-13T21:41:45.275Z,-5.10
2023-02-13T21:43:49.590Z,-5.10
2023-02-13T21:45:52.262Z,-5.05
2023-02-13T21:47:56.710Z,-5.02
2023-02-13T21:49:59.308Z,-4.97
2023-02-13T21:52:02.004Z,-4.93
2023-02-13T21:54:06.128Z,-4.93
2023-02-13T21:56:12.647Z,-4.90
2023-02-13T21:58:15.372Z,-4.85
2023-02-13T22:00:18.180Z,-4.82
2023-02-13T22:02:20.927Z,-4.77
2023-02-13T22:04:23.855Z,-4.75
2023-02-13T22:06:27.404Z,-4.73
2023-02-13T22:08:30.060Z,-4.71
2023-02-13T22:10:32.666Z,-4.68
2023-02-13T22:12:35.308Z,-4.64
2023-02-13T22:14:38.199Z,-4.65
2023-02-13T22:16:42.668Z,-4.61
2023-02-13T22:18:45.965Z,-4.57
2023-02-13T22:20:48.638Z,-4.54
2023-02-13T22:22:51.378Z,-4.53
2023-02-13T22:24:53.980Z,-4.48
2023-02-13T22:26:56.663Z,-4.46
2023-02-13T22:29:01.585Z,-4.43
2023-02-13T22:31:09.357Z,-4.44
2023-02-13T22:33:12.205Z,-4.39
2023-02-13T22:35:14.947Z,-4.41
2023-02-13T22:37:17.663Z,-4.41
2023-02-13T22:39:20.292Z,-4.38
2023-02-13T22:41:27.493Z,-4.38
2023-02-13T22:43:30.092Z,-4.34
2023-02-13T22:45:39.044Z,-4.32
2023-02-13T22:47:41.681Z,-4.34
2023-02-13T22:49:44.304Z,-4.34
2023-02-13T22:51:46.920Z,-4.34
2023-02-13T22:53:52.307Z,-4.36
2023-02-13T22:55:54.919Z,-4.35
2023-02-13T22:57:58.556Z,-4.41
2023-02-13T23:00:01.130Z,-4.38
2023-02-13T23:02:06.971Z,-4.41
2023-02-13T23:04:09.734Z,-4.48
2023-02-13T23:06:14.358Z,-4.39
2023-02-13T23:08:17.421Z,-4.39
2023-02-13T23:10:20.218Z,-4.40
2023-02-13T23:12:39.282Z,-4.35
2023-02-13T23:14:41.944Z,-4.35
2023-02-13T23:17:03.244Z,-4.33
2023-02-13T23:19:05.882Z,-4.30
2023-02-13T23:21:08.688Z,-4.29
2023-02-13T23:23:11.693Z,-4.26
2023-02-13T23:25:15.279Z,-4.23
2023-02-13T23:27:18.029Z,-4.27
2023-02-13T23:29:20.852Z,-4.24
2023-02-13T23:31:23.589Z,-4.29
2023-02-13T23:33:26.424Z,-4.29
2023-02-13T23:35:29.193Z,-4.24
2023-02-13T23:37:31.862Z,-4.27
2023-02-13T23:39:34.452Z,-4.33
2023-02-13T23:41:37.073Z,-4.33
2023-02-13T23:43:39.728Z,-4.34
2023-02-13T23:45:42.412Z,-4.40
2023-02-13T23:47:44.990Z,-4.44
2023-02-13T23:49:47.703Z,-4.53
2023-02-13T23:51:50.292Z,-4.53
2023-02-13T23:53:56.292Z,-4.52
2023-02-13T23:55:59.097Z,-4.48
2023-02-13T23:58:01.886Z,-4.54
